Create Custom Reports and Graphics: Custom Report

Stanford Met Tower

Current Conditions

4/19/19 10:45 AM (-07:00)
Updated Every 15 Minutes
Temp 72.7 °F   4.8
RH 53 %   12
Dew Pt 56.0 °F   2.3
Wind Dir N | 358 °
Wind Spd 6.1 mph   2.1
Wind Gust 8.8 mph   0.8
Solar Rad 861 W/m2   21
Daily Min Temp 47.6 °F   2.4
Daily Max Temp 73.7 °F   5.5
Daily Max Wind 10.7 mph   2.1
Daily Rain 0.00 In
Min Temp Yest 45.1 °F
Max Temp Yest 86.2 °F
Max Wind Yest 10.7 mph
Rain Yest 0.00 In
Seasonal Rainfall 16.73 In

Last 48 Hours

Stanford Met Tower

Hourly Data | America/Los_Angeles
as of 4/19/19 11:49 AM PDT
Date & Time Temp (°F) Upper Temp (°F) Temp Inversion (°F) RH (%) Dew Pt (°F) Wind Dir (°) Wind Spd (mph) Wind Gust (mph) Latest Rain (In) ETo Hr (in) ETo 2pm (In) Daily Rain (In) Daily Min Temp (°F) Daily Max Temp (°F)
4/19/19 - 1000 69.8 64.4 -5.4 57 56.1 NNW | 340 4.9 10.7 0.00 0.015 0.19 0.00 47.6 70.6
4/19/19 - 0900 68.8 64.4 -4.4 55 56.5 NNE | 15 2.8 5.3 0.00 0.011 0.19 0.00 47.6 69.4
4/19/19 - 0800 62.6 61.0 -1.5 66 55.3 NNE | 15 1.8 3.5 0.00 0.005 0.19 0.00 47.6 62.9
4/19/19 - 0700 56.1 56.1 0.0 94 53.0 SSW | 213 2.9 4.9 0.00 0.001 0.19 0.00 47.6 56.6
4/19/19 - 0600 49.0 50.8 1.8 93 46.5 SSW | 203 4.7 7.5 0.00 0.000 0.19 0.00 47.6 56.6
4/19/19 - 0500 48.2 50.3 2.1 92 45.1 SW | 231 3.3 4.6 0.00 0.000 0.19 0.00 47.6 56.6
4/19/19 - 0400 49.4 51.3 1.9 92 46.5 SW | 220 3.8 7.1 0.00 0.000 0.19 0.00 48.3 56.6
4/19/19 - 0300 50.4 52.7 2.3 91 47.6 S | 191 4.0 7.1 0.00 0.000 0.19 0.00 50.3 56.6
4/19/19 - 0200 52.2 53.9 1.7 90 48.9 S | 186 3.9 7.3 0.00 0.000 0.19 0.00 51.6 56.6
4/19/19 - 0100 53.4 55.6 2.1 89 49.8 S | 187 4.7 9.2 0.00 0.000 0.19 0.00 52.9 56.6
4/19/19 - 0000 56.6 57.4 0.9 88 51.3 S | 170 3.2 5.7 0.00 0.000 0.19 0.00 45.1 86.2
4/18/19 - 2300 54.5 57.5 3.0 85 50.5 SE | 126 2.1 4.6 0.00 0.000 0.19 0.00 45.1 86.2
4/18/19 - 2200 58.0 60.8 2.8 79 51.5 NE | 34 2.7 4.9 0.00 0.000 0.19 0.00 45.1 86.2
4/18/19 - 2100 61.3 62.6 1.3 76 53.6 NE | 36 3.6 5.7 0.00 0.000 0.19 0.00 45.1 86.2
4/18/19 - 2000 65.0 65.5 0.5 68 54.9 NNE | 30 3.2 6.6 0.00 0.000 0.19 0.00 45.1 86.2
4/18/19 - 1900 70.5 73.2 2.7 50 53.0 NNW | 345 3.9 7.2 0.00 0.000 0.19 0.00 45.1 86.2
4/18/19 - 1800 77.1 76.2 -0.9 38 52.4 N | 357 5.4 9.3 0.00 0.006 0.19 0.00 45.1 86.2
4/18/19 - 1700 81.5 78.7 -2.8 30 51.6 NW | 313 4.1 9.8 0.00 0.011 0.19 0.00 45.1 86.2
4/18/19 - 1600 82.1 79.2 -2.8 26 49.0 NNW | 331 3.0 8.0 0.00 0.016 0.19 0.00 45.1 86.2
4/18/19 - 1500 82.9 78.5 -4.4 27 50.0 NNW | 337 4.5 10.5 0.00 0.022 0.19 0.00 45.1 86.2
4/18/19 - 1400 84.0 77.2 -6.8 30 51.2 N | 1 4.7 10.7 0.00 0.024 0.19 0.00 45.1 84.8
4/18/19 - 1300 84.4 76.1 -8.4 30 50.4 NNE | 25 5.0 10.1 0.00 0.026 0.17 0.00 45.1 84.6
4/18/19 - 1200 81.3 74.2 -7.1 33 50.6 N | 2 4.8 10.1 0.00 0.025 0.17 0.00 45.1 82.0
4/18/19 - 1100 78.6 71.2 -7.4 40 54.6 N | 351 3.3 8.0 0.00 0.022 0.17 0.00 45.1 79.2
4/18/19 - 1000 74.5 67.6 -7.0 41 51.5 NE | 56 2.3 5.7 0.00 0.018 0.17 0.00 45.1 74.6
4/18/19 - 0900 68.0 63.6 -4.4 50 52.1 W | 266 1.9 4.1 0.00 0.012 0.17 0.00 45.1 68.1
4/18/19 - 0800 61.9 58.9 -3.1 64 54.8 WNW | 290 1.7 4.0 0.00 0.006 0.17 0.00 45.1 62.0
4/18/19 - 0700 54.6 54.8 0.2 95 51.8 S | 190 3.7 7.8 0.00 0.001 0.17 0.00 45.1 54.8
4/18/19 - 0600 46.7 48.0 1.4 93 43.6 SSW | 202 5.0 7.3 0.00 0.000 0.17 0.00 45.1 50.1
4/18/19 - 0500 46.2 47.4 1.2 92 43.0 SSW | 196 5.1 8.1 0.00 0.000 0.17 0.00 45.4 50.1
4/18/19 - 0400 46.1 47.5 1.4 92 42.6 SSW | 199 4.3 6.9 0.00 0.000 0.17 0.00 45.4 50.1
4/18/19 - 0300 46.7 48.0 1.3 92 43.8 SSW | 202 4.9 8.5 0.00 0.000 0.17 0.00 46.5 50.1
4/18/19 - 0200 48.3 49.3 1.0 92 44.8 SSW | 199 5.2 8.6 0.00 0.000 0.17 0.00 47.3 50.1
4/18/19 - 0100 48.8 49.8 1.0 91 44.9 S | 181 3.5 7.3 0.00 0.000 0.17 0.00 47.3 50.1
4/18/19 - 0000 48.9 50.4 1.5 90 45.7 S | 172 3.3 6.2 0.00 0.000 0.17 0.00 40.3 78.6
4/17/19 - 2300 49.7 52.7 3.0 88 46.2 SSE | 168 2.7 5.2 0.00 0.000 0.17 0.00 40.3 78.6
4/17/19 - 2200 50.6 54.4 3.8 84 46.2 SSE | 165 1.5 3.2 0.00 0.000 0.17 0.00 40.3 78.6
4/17/19 - 2100 54.2 56.5 2.3 78 48.0 NNE | 30 3.0 6.1 0.00 0.000 0.17 0.00 40.3 78.6
4/17/19 - 2000 57.9 59.8 2.0 71 49.2 NE | 51 3.0 5.8 0.00 0.000 0.17 0.00 40.3 78.6
4/17/19 - 1900 62.4 62.5 0.1 61 51.1 NE | 34 4.4 7.0 0.00 0.000 0.17 0.00 40.3 78.6
4/17/19 - 1800 70.2 68.5 -1.7 43 49.1 NNE | 27 5.9 9.4 0.00 0.005 0.17 0.00 40.3 78.6
4/17/19 - 1700 74.2 71.1 -3.2 33 46.6 NNE | 12 7.5 12.5 0.00 0.011 0.17 0.00 40.3 78.6
4/17/19 - 1600 77.6 72.5 -5.1 32 48.7 N | 5 6.9 14.3 0.00 0.017 0.17 0.00 40.3 78.6
4/17/19 - 1500 76.5 71.2 -5.2 30 46.9 N | 360 7.2 13.3 0.00 0.021 0.17 0.00 40.3 78.6
4/17/19 - 1400 77.0 70.9 -6.1 31 46.6 NNW | 346 5.6 13.4 0.00 0.024 0.17 0.00 40.3 78.6
4/17/19 - 1300 76.9 70.0 -6.9 35 48.5 NNW | 344 5.1 10.8 0.00 0.024 0.12 0.00 40.3 77.6
4/17/19 - 1200 73.4 66.4 -6.9 38 48.1 N | 7 5.0 10.1 0.00 0.024 0.12 0.00 40.3 74.9
4/17/19 - 1100 72.2 64.1 -8.2 43 50.1 NNE | 24 2.5 8.8 0.00 0.021 0.12 0.00 40.3 72.4
Max 84.4 79.2 3.8 95 56.5 - 7.5 14.3 0.00 0.026 0.19 0.00 52.9 86.2
Avg 63.4 62.0 -1.4 64 49.4 - 4.0 7.8 0.00 0.008 0.18 - - -
Min 46.1 47.4 -8.4 26 42.6 - 1.5 3.2 0.00 0.000 0.12 0.00 40.3 50.1
Total - - - - - - - - 0.00 0.368 - - - -
Calm: 0.0%
Calm: 0.0%